sensor_id;sensor_type;location;lat;lon;timestamp;P1;durP1;ratioP1;P2;durP2;ratioP2
1402;SDS011;696;48.546;9.896;2023-04-09T00:01:37;12.18;;;8.48;;
1402;SDS011;696;48.546;9.896;2023-04-09T00:04:03;11.63;;;8.32;;
1402;SDS011;696;48.546;9.896;2023-04-09T00:06:28;15.00;;;9.65;;
1402;SDS011;696;48.546;9.896;2023-04-09T00:08:55;11.90;;;9.10;;
1402;SDS011;696;48.546;9.896;2023-04-09T00:11:20;13.63;;;9.07;;
1402;SDS011;696;48.546;9.896;2023-04-09T00:13:46;15.85;;;9.68;;
1402;SDS011;696;48.546;9.896;2023-04-09T00:16:11;15.82;;;10.27;;
1402;SDS011;696;48.546;9.896;2023-04-09T00:18:37;16.00;;;9.32;;
1402;SDS011;696;48.546;9.896;2023-04-09T00:21:02;13.02;;;9.07;;
1402;SDS011;696;48.546;9.896;2023-04-09T00:23:27;13.10;;;8.98;;
1402;SDS011;696;48.546;9.896;2023-04-09T00:25:53;18.40;;;9.07;;
1402;SDS011;696;48.546;9.896;2023-04-09T00:28:18;14.70;;;9.45;;
1402;SDS011;696;48.546;9.896;2023-04-09T00:30:44;13.93;;;9.02;;
1402;SDS011;696;48.546;9.896;2023-04-09T00:33:09;15.18;;;9.40;;
1402;SDS011;696;48.546;9.896;2023-04-09T00:35:38;15.85;;;9.27;;
1402;SDS011;696;48.546;9.896;2023-04-09T00:38:03;17.77;;;8.88;;
1402;SDS011;696;48.546;9.896;2023-04-09T00:40:28;16.30;;;9.63;;
1402;SDS011;696;48.546;9.896;2023-04-09T00:42:54;15.30;;;9.73;;
1402;SDS011;696;48.546;9.896;2023-04-09T00:45:21;16.05;;;9.60;;
1402;SDS011;696;48.546;9.896;2023-04-09T00:47:46;12.27;;;8.20;;
1402;SDS011;696;48.546;9.896;2023-04-09T00:50:11;14.43;;;9.38;;
1402;SDS011;696;48.546;9.896;2023-04-09T00:52:39;18.08;;;9.05;;
1402;SDS011;696;48.546;9.896;2023-04-09T00:55:05;15.50;;;9.20;;
1402;SDS011;696;48.546;9.896;2023-04-09T00:57:30;17.83;;;8.32;;
1402;SDS011;696;48.546;9.896;2023-04-09T00:59:56;14.70;;;8.40;;
1402;SDS011;696;48.546;9.896;2023-04-09T01:02:22;17.65;;;9.18;;
1402;SDS011;696;48.546;9.896;2023-04-09T01:04:47;14.45;;;9.25;;
1402;SDS011;696;48.546;9.896;2023-04-09T01:15:51;13.55;;;9.32;;
1402;SDS011;696;48.546;9.896;2023-04-09T01:20:51;19.25;;;10.02;;
1402;SDS011;696;48.546;9.896;2023-04-09T01:29:11;17.65;;;10.68;;
1402;SDS011;696;48.546;9.896;2023-04-09T01:31:38;13.75;;;9.43;;
1402;SDS011;696;48.546;9.896;2023-04-09T01:34:04;14.98;;;9.38;;
1402;SDS011;696;48.546;9.896;2023-04-09T01:36:30;10.60;;;8.32;;
1402;SDS011;696;48.546;9.896;2023-04-09T01:38:56;12.90;;;8.60;;
1402;SDS011;696;48.546;9.896;2023-04-09T01:41:24;19.23;;;9.50;;
1402;SDS011;696;48.546;9.896;2023-04-09T01:43:51;13.52;;;8.55;;
1402;SDS011;696;48.546;9.896;2023-04-09T01:46:17;11.23;;;8.52;;
1402;SDS011;696;48.546;9.896;2023-04-09T01:48:43;14.07;;;8.70;;
1402;SDS011;696;48.546;9.896;2023-04-09T01:51:10;13.25;;;7.65;;
1402;SDS011;696;48.546;9.896;2023-04-09T01:53:38;15.02;;;9.23;;
1402;SDS011;696;48.546;9.896;2023-04-09T01:56:03;13.93;;;8.48;;
1402;SDS011;696;48.546;9.896;2023-04-09T01:58:29;12.82;;;8.98;;
1402;SDS011;696;48.546;9.896;2023-04-09T02:01:05;13.25;;;9.07;;
1402;SDS011;696;48.546;9.896;2023-04-09T02:03:38;14.00;;;8.75;;
1402;SDS011;696;48.546;9.896;2023-04-09T02:06:14;19.85;;;9.50;;
1402;SDS011;696;48.546;9.896;2023-04-09T02:08:51;14.10;;;9.35;;
1402;SDS011;696;48.546;9.896;2023-04-09T02:11:17;12.77;;;9.13;;
1402;SDS011;696;48.546;9.896;2023-04-09T02:13:43;14.45;;;8.48;;
1402;SDS011;696;48.546;9.896;2023-04-09T02:16:10;16.70;;;9.55;;
1402;SDS011;696;48.546;9.896;2023-04-09T02:18:36;14.15;;;9.32;;
1402;SDS011;696;48.546;9.896;2023-04-09T02:21:02;18.30;;;9.15;;
1402;SDS011;696;48.546;9.896;2023-04-09T02:23:28;16.92;;;9.90;;
1402;SDS011;696;48.546;9.896;2023-04-09T02:25:56;15.95;;;9.93;;
1402;SDS011;696;48.546;9.896;2023-04-09T02:28:21;16.33;;;9.60;;
1402;SDS011;696;48.546;9.896;2023-04-09T02:30:46;13.93;;;9.45;;
1402;SDS011;696;48.546;9.896;2023-04-09T02:33:12;15.77;;;10.02;;
1402;SDS011;696;48.546;9.896;2023-04-09T02:35:37;15.10;;;9.82;;
1402;SDS011;696;48.546;9.896;2023-04-09T02:38:03;19.27;;;11.45;;
1402;SDS011;696;48.546;9.896;2023-04-09T02:40:28;16.10;;;9.77;;
1402;SDS011;696;48.546;9.896;2023-04-09T02:42:53;16.95;;;10.32;;
1402;SDS011;696;48.546;9.896;2023-04-09T02:45:19;16.83;;;9.43;;
1402;SDS011;696;48.546;9.896;2023-04-09T02:47:44;14.40;;;9.60;;
1402;SDS011;696;48.546;9.896;2023-04-09T02:50:10;15.38;;;9.25;;
1402;SDS011;696;48.546;9.896;2023-04-09T02:52:35;16.60;;;10.23;;
1402;SDS011;696;48.546;9.896;2023-04-09T02:55:00;12.15;;;8.82;;
1402;SDS011;696;48.546;9.896;2023-04-09T02:57:26;15.40;;;9.25;;
1402;SDS011;696;48.546;9.896;2023-04-09T02:59:51;12.57;;;8.90;;
1402;SDS011;696;48.546;9.896;2023-04-09T03:02:17;16.15;;;9.88;;
1402;SDS011;696;48.546;9.896;2023-04-09T03:04:42;17.35;;;10.27;;
1402;SDS011;696;48.546;9.896;2023-04-09T03:07:07;18.35;;;10.38;;
1402;SDS011;696;48.546;9.896;2023-04-09T03:09:33;15.02;;;10.23;;
1402;SDS011;696;48.546;9.896;2023-04-09T03:11:58;13.90;;;9.68;;
1402;SDS011;696;48.546;9.896;2023-04-09T03:14:25;13.82;;;8.63;;
1402;SDS011;696;48.546;9.896;2023-04-09T03:16:51;15.65;;;10.32;;
1402;SDS011;696;48.546;9.896;2023-04-09T03:19:16;19.05;;;11.40;;
1402;SDS011;696;48.546;9.896;2023-04-09T03:21:42;20.10;;;11.82;;
1402;SDS011;696;48.546;9.896;2023-04-09T03:24:07;21.65;;;11.73;;
1402;SDS011;696;48.546;9.896;2023-04-09T03:26:32;19.38;;;11.35;;
1402;SDS011;696;48.546;9.896;2023-04-09T03:29:04;19.55;;;12.05;;
1402;SDS011;696;48.546;9.896;2023-04-09T03:31:30;16.15;;;10.07;;
1402;SDS011;696;48.546;9.896;2023-04-09T03:33:55;19.45;;;9.60;;
1402;SDS011;696;48.546;9.896;2023-04-09T03:36:21;19.08;;;11.88;;
1402;SDS011;696;48.546;9.896;2023-04-09T03:38:46;15.48;;;10.95;;
1402;SDS011;696;48.546;9.896;2023-04-09T03:41:12;16.67;;;10.45;;
1402;SDS011;696;48.546;9.896;2023-04-09T03:43:38;20.20;;;10.52;;
1402;SDS011;696;48.546;9.896;2023-04-09T03:46:10;18.63;;;10.05;;
1402;SDS011;696;48.546;9.896;2023-04-09T03:48:36;16.98;;;9.77;;
1402;SDS011;696;48.546;9.896;2023-04-09T03:51:01;17.27;;;10.80;;
1402;SDS011;696;48.546;9.896;2023-04-09T03:53:27;19.70;;;10.88;;
1402;SDS011;696;48.546;9.896;2023-04-09T03:55:52;15.00;;;9.82;;
1402;SDS011;696;48.546;9.896;2023-04-09T03:58:19;17.92;;;10.27;;
1402;SDS011;696;48.546;9.896;2023-04-09T04:00:45;16.92;;;10.40;;
1402;SDS011;696;48.546;9.896;2023-04-09T04:03:10;17.98;;;11.00;;
1402;SDS011;696;48.546;9.896;2023-04-09T04:05:38;18.20;;;10.23;;
1402;SDS011;696;48.546;9.896;2023-04-09T04:08:03;21.83;;;10.95;;
1402;SDS011;696;48.546;9.896;2023-04-09T04:10:29;15.60;;;9.60;;
1402;SDS011;696;48.546;9.896;2023-04-09T04:12:54;15.05;;;9.25;;
1402;SDS011;696;48.546;9.896;2023-04-09T04:15:20;13.10;;;9.30;;
1402;SDS011;696;48.546;9.896;2023-04-09T04:17:45;16.50;;;10.45;;
1402;SDS011;696;48.546;9.896;2023-04-09T04:20:10;13.85;;;9.55;;
1402;SDS011;696;48.546;9.896;2023-04-09T04:22:36;16.85;;;10.35;;
1402;SDS011;696;48.546;9.896;2023-04-09T04:25:02;14.63;;;9.82;;
1402;SDS011;696;48.546;9.896;2023-04-09T04:27:28;14.80;;;9.20;;
1402;SDS011;696;48.546;9.896;2023-04-09T04:29:53;19.88;;;10.05;;
1402;SDS011;696;48.546;9.896;2023-04-09T04:32:19;16.10;;;10.45;;
1402;SDS011;696;48.546;9.896;2023-04-09T04:34:47;15.52;;;9.25;;
1402;SDS011;696;48.546;9.896;2023-04-09T04:37:14;16.08;;;9.75;;
1402;SDS011;696;48.546;9.896;2023-04-09T04:39:40;15.07;;;10.07;;
1402;SDS011;696;48.546;9.896;2023-04-09T04:42:05;17.08;;;11.60;;
1402;SDS011;696;48.546;9.896;2023-04-09T04:44:31;15.13;;;10.13;;
1402;SDS011;696;48.546;9.896;2023-04-09T04:46:56;19.13;;;11.23;;
1402;SDS011;696;48.546;9.896;2023-04-09T04:49:21;15.23;;;10.15;;
1402;SDS011;696;48.546;9.896;2023-04-09T04:51:47;21.33;;;10.90;;
1402;SDS011;696;48.546;9.896;2023-04-09T04:54:12;19.90;;;10.63;;
1402;SDS011;696;48.546;9.896;2023-04-09T04:56:37;15.48;;;10.07;;
1402;SDS011;696;48.546;9.896;2023-04-09T04:59:03;16.48;;;11.07;;
1402;SDS011;696;48.546;9.896;2023-04-09T05:01:28;16.55;;;10.88;;
1402;SDS011;696;48.546;9.896;2023-04-09T05:03:53;20.70;;;11.88;;
1402;SDS011;696;48.546;9.896;2023-04-09T05:06:19;20.15;;;10.93;;
1402;SDS011;696;48.546;9.896;2023-04-09T05:08:44;18.05;;;10.85;;
1402;SDS011;696;48.546;9.896;2023-04-09T05:11:10;23.08;;;10.63;;
1402;SDS011;696;48.546;9.896;2023-04-09T05:13:36;16.27;;;11.27;;
1402;SDS011;696;48.546;9.896;2023-04-09T05:16:02;21.65;;;11.18;;
1402;SDS011;696;48.546;9.896;2023-04-09T05:18:27;17.95;;;11.68;;
1402;SDS011;696;48.546;9.896;2023-04-09T05:20:54;20.45;;;11.23;;
1402;SDS011;696;48.546;9.896;2023-04-09T05:23:20;18.83;;;11.15;;
1402;SDS011;696;48.546;9.896;2023-04-09T05:25:49;17.30;;;10.77;;
1402;SDS011;696;48.546;9.896;2023-04-09T05:28:14;20.73;;;11.52;;
1402;SDS011;696;48.546;9.896;2023-04-09T05:30:50;19.98;;;11.05;;
1402;SDS011;696;48.546;9.896;2023-04-09T05:33:15;17.80;;;10.35;;
1402;SDS011;696;48.546;9.896;2023-04-09T05:35:41;16.55;;;9.93;;
1402;SDS011;696;48.546;9.896;2023-04-09T05:38:06;17.30;;;10.85;;
1402;SDS011;696;48.546;9.896;2023-04-09T05:40:31;21.08;;;11.38;;
1402;SDS011;696;48.546;9.896;2023-04-09T05:42:57;17.90;;;11.23;;
1402;SDS011;696;48.546;9.896;2023-04-09T05:45:22;15.43;;;10.15;;
1402;SDS011;696;48.546;9.896;2023-04-09T05:47:48;19.98;;;11.43;;
1402;SDS011;696;48.546;9.896;2023-04-09T05:50:13;21.23;;;12.95;;
1402;SDS011;696;48.546;9.896;2023-04-09T05:52:38;27.45;;;13.23;;
1402;SDS011;696;48.546;9.896;2023-04-09T05:55:04;36.72;;;16.95;;
1402;SDS011;696;48.546;9.896;2023-04-09T05:57:30;25.35;;;15.38;;
1402;SDS011;696;48.546;9.896;2023-04-09T05:59:56;26.33;;;14.20;;
1402;SDS011;696;48.546;9.896;2023-04-09T06:02:23;25.15;;;14.10;;
1402;SDS011;696;48.546;9.896;2023-04-09T06:04:49;29.85;;;14.48;;
1402;SDS011;696;48.546;9.896;2023-04-09T06:07:15;22.10;;;14.10;;
1402;SDS011;696;48.546;9.896;2023-04-09T06:09:40;24.30;;;13.77;;
1402;SDS011;696;48.546;9.896;2023-04-09T06:12:08;21.42;;;13.52;;
1402;SDS011;696;48.546;9.896;2023-04-09T06:14:33;25.30;;;13.95;;
1402;SDS011;696;48.546;9.896;2023-04-09T06:16:59;23.45;;;13.60;;
1402;SDS011;696;48.546;9.896;2023-04-09T06:19:24;25.05;;;14.68;;
1402;SDS011;696;48.546;9.896;2023-04-09T06:21:49;21.80;;;13.82;;
1402;SDS011;696;48.546;9.896;2023-04-09T06:24:15;33.42;;;14.60;;
1402;SDS011;696;48.546;9.896;2023-04-09T06:26:40;24.52;;;14.07;;
1402;SDS011;696;48.546;9.896;2023-04-09T06:29:06;20.10;;;13.38;;
1402;SDS011;696;48.546;9.896;2023-04-09T06:31:31;29.90;;;14.98;;
1402;SDS011;696;48.546;9.896;2023-04-09T06:33:57;22.73;;;13.52;;
1402;SDS011;696;48.546;9.896;2023-04-09T06:36:22;20.40;;;13.18;;
1402;SDS011;696;48.546;9.896;2023-04-09T06:38:48;20.58;;;12.90;;
1402;SDS011;696;48.546;9.896;2023-04-09T06:41:13;19.30;;;12.90;;
1402;SDS011;696;48.546;9.896;2023-04-09T06:43:38;19.33;;;12.48;;
1402;SDS011;696;48.546;9.896;2023-04-09T06:46:04;21.17;;;13.73;;
1402;SDS011;696;48.546;9.896;2023-04-09T06:48:30;21.48;;;14.18;;
1402;SDS011;696;48.546;9.896;2023-04-09T06:50:55;21.05;;;13.95;;
1402;SDS011;696;48.546;9.896;2023-04-09T06:53:21;23.33;;;14.32;;
1402;SDS011;696;48.546;9.896;2023-04-09T06:55:46;24.10;;;13.80;;
1402;SDS011;696;48.546;9.896;2023-04-09T06:58:11;22.02;;;13.90;;
1402;SDS011;696;48.546;9.896;2023-04-09T07:00:37;20.33;;;13.48;;
1402;SDS011;696;48.546;9.896;2023-04-09T07:03:03;25.60;;;13.45;;
1402;SDS011;696;48.546;9.896;2023-04-09T07:05:29;25.42;;;14.02;;
1402;SDS011;696;48.546;9.896;2023-04-09T07:07:55;29.42;;;14.18;;
1402;SDS011;696;48.546;9.896;2023-04-09T07:10:20;24.65;;;14.52;;
1402;SDS011;696;48.546;9.896;2023-04-09T07:12:45;24.27;;;13.48;;
1402;SDS011;696;48.546;9.896;2023-04-09T07:15:12;22.27;;;13.35;;
1402;SDS011;696;48.546;9.896;2023-04-09T07:17:37;18.30;;;12.10;;
1402;SDS011;696;48.546;9.896;2023-04-09T07:20:02;19.42;;;11.45;;
1402;SDS011;696;48.546;9.896;2023-04-09T07:22:28;19.23;;;12.15;;
1402;SDS011;696;48.546;9.896;2023-04-09T07:24:54;18.38;;;12.38;;
1402;SDS011;696;48.546;9.896;2023-04-09T07:27:20;19.75;;;12.77;;
1402;SDS011;696;48.546;9.896;2023-04-09T07:29:46;20.20;;;13.40;;
1402;SDS011;696;48.546;9.896;2023-04-09T07:32:12;19.67;;;11.52;;
1402;SDS011;696;48.546;9.896;2023-04-09T07:34:40;18.50;;;11.90;;
1402;SDS011;696;48.546;9.896;2023-04-09T07:37:05;15.02;;;11.45;;
1402;SDS011;696;48.546;9.896;2023-04-09T07:39:30;17.77;;;10.57;;
1402;SDS011;696;48.546;9.896;2023-04-09T07:41:56;18.65;;;12.07;;
1402;SDS011;696;48.546;9.896;2023-04-09T07:44:21;17.10;;;11.43;;
1402;SDS011;696;48.546;9.896;2023-04-09T07:46:47;17.55;;;11.32;;
1402;SDS011;696;48.546;9.896;2023-04-09T07:49:12;34.40;;;20.52;;
1402;SDS011;696;48.546;9.896;2023-04-09T07:51:38;31.55;;;15.93;;
1402;SDS011;696;48.546;9.896;2023-04-09T07:54:03;70.50;;;27.58;;
1402;SDS011;696;48.546;9.896;2023-04-09T07:56:29;29.10;;;16.88;;
1402;SDS011;696;48.546;9.896;2023-04-09T07:58:54;18.73;;;11.82;;
1402;SDS011;696;48.546;9.896;2023-04-09T08:01:20;17.80;;;11.50;;
1402;SDS011;696;48.546;9.896;2023-04-09T08:03:48;17.65;;;10.27;;
1402;SDS011;696;48.546;9.896;2023-04-09T08:06:14;19.10;;;10.77;;
1402;SDS011;696;48.546;9.896;2023-04-09T08:08:40;14.90;;;10.27;;
1402;SDS011;696;48.546;9.896;2023-04-09T08:11:05;18.15;;;11.20;;
1402;SDS011;696;48.546;9.896;2023-04-09T08:13:31;18.40;;;10.43;;
1402;SDS011;696;48.546;9.896;2023-04-09T08:15:58;13.52;;;9.32;;
1402;SDS011;696;48.546;9.896;2023-04-09T08:18:24;16.00;;;10.10;;
1402;SDS011;696;48.546;9.896;2023-04-09T08:20:50;16.70;;;11.35;;
1402;SDS011;696;48.546;9.896;2023-04-09T08:23:15;14.23;;;10.45;;
1402;SDS011;696;48.546;9.896;2023-04-09T08:25:41;12.85;;;9.93;;
1402;SDS011;696;48.546;9.896;2023-04-09T08:28:06;14.98;;;10.50;;
1402;SDS011;696;48.546;9.896;2023-04-09T08:30:32;13.68;;;10.38;;
1402;SDS011;696;48.546;9.896;2023-04-09T08:32:58;16.52;;;10.63;;
1402;SDS011;696;48.546;9.896;2023-04-09T08:35:25;15.27;;;10.38;;
1402;SDS011;696;48.546;9.896;2023-04-09T08:37:50;14.27;;;10.30;;
1402;SDS011;696;48.546;9.896;2023-04-09T08:40:15;18.73;;;11.00;;
1402;SDS011;696;48.546;9.896;2023-04-09T08:42:42;26.10;;;10.75;;
1402;SDS011;696;48.546;9.896;2023-04-09T08:45:10;12.35;;;9.02;;
1402;SDS011;696;48.546;9.896;2023-04-09T08:47:36;10.25;;;8.23;;
1402;SDS011;696;48.546;9.896;2023-04-09T08:50:02;13.43;;;9.02;;
1402;SDS011;696;48.546;9.896;2023-04-09T08:52:31;16.17;;;9.65;;
1402;SDS011;696;48.546;9.896;2023-04-09T08:54:57;15.43;;;9.88;;
1402;SDS011;696;48.546;9.896;2023-04-09T08:57:23;12.95;;;9.35;;
1402;SDS011;696;48.546;9.896;2023-04-09T08:59:48;12.10;;;9.40;;
1402;SDS011;696;48.546;9.896;2023-04-09T09:02:13;14.13;;;9.75;;
1402;SDS011;696;48.546;9.896;2023-04-09T09:04:49;15.13;;;10.13;;
1402;SDS011;696;48.546;9.896;2023-04-09T09:07:15;15.55;;;9.90;;
1402;SDS011;696;48.546;9.896;2023-04-09T09:09:56;13.68;;;9.73;;
1402;SDS011;696;48.546;9.896;2023-04-09T09:14:57;14.20;;;8.55;;
1402;SDS011;696;48.546;9.896;2023-04-09T09:17:23;13.02;;;8.85;;
1402;SDS011;696;48.546;9.896;2023-04-09T09:19:48;15.55;;;9.60;;
1402;SDS011;696;48.546;9.896;2023-04-09T09:22:13;14.07;;;9.52;;
1402;SDS011;696;48.546;9.896;2023-04-09T09:24:49;14.95;;;9.93;;
1402;SDS011;696;48.546;9.896;2023-04-09T09:30:21;12.23;;;9.15;;
1402;SDS011;696;48.546;9.896;2023-04-09T09:32:50;13.57;;;9.05;;
1402;SDS011;696;48.546;9.896;2023-04-09T09:35:16;13.13;;;8.02;;
1402;SDS011;696;48.546;9.896;2023-04-09T09:37:41;12.25;;;8.68;;
1402;SDS011;696;48.546;9.896;2023-04-09T09:40:07;13.15;;;8.50;;
1402;SDS011;696;48.546;9.896;2023-04-09T09:42:33;11.55;;;8.02;;
1402;SDS011;696;48.546;9.896;2023-04-09T09:44:58;9.43;;;7.30;;
1402;SDS011;696;48.546;9.896;2023-04-09T09:47:24;10.02;;;7.18;;
1402;SDS011;696;48.546;9.896;2023-04-09T09:49:51;10.05;;;7.38;;
1402;SDS011;696;48.546;9.896;2023-04-09T09:52:23;12.00;;;7.35;;
1402;SDS011;696;48.546;9.896;2023-04-09T09:54:52;11.48;;;7.75;;
1402;SDS011;696;48.546;9.896;2023-04-09T09:57:19;7.68;;;6.13;;
1402;SDS011;696;48.546;9.896;2023-04-09T09:59:54;11.32;;;6.88;;
1402;SDS011;696;48.546;9.896;2023-04-09T10:02:24;10.68;;;7.38;;
1402;SDS011;696;48.546;9.896;2023-04-09T10:04:54;8.43;;;6.93;;
1402;SDS011;696;48.546;9.896;2023-04-09T10:07:21;10.73;;;7.75;;
1402;SDS011;696;48.546;9.896;2023-04-09T10:09:48;10.32;;;6.88;;
1402;SDS011;696;48.546;9.896;2023-04-09T10:12:15;9.93;;;7.60;;
1402;SDS011;696;48.546;9.896;2023-04-09T10:14:41;12.45;;;7.57;;
1402;SDS011;696;48.546;9.896;2023-04-09T10:17:07;10.77;;;6.70;;
1402;SDS011;696;48.546;9.896;2023-04-09T10:19:34;10.60;;;7.70;;
1402;SDS011;696;48.546;9.896;2023-04-09T10:22:08;10.32;;;6.90;;
1402;SDS011;696;48.546;9.896;2023-04-09T10:24:35;14.00;;;6.30;;
1402;SDS011;696;48.546;9.896;2023-04-09T10:27:13;8.77;;;5.85;;
1402;SDS011;696;48.546;9.896;2023-04-09T10:29:44;8.02;;;6.40;;
1402;SDS011;696;48.546;9.896;2023-04-09T10:32:10;8.82;;;6.28;;
1402;SDS011;696;48.546;9.896;2023-04-09T10:34:37;11.38;;;6.55;;
1402;SDS011;696;48.546;9.896;2023-04-09T10:37:07;8.43;;;6.28;;
1402;SDS011;696;48.546;9.896;2023-04-09T10:39:37;8.38;;;6.55;;
1402;SDS011;696;48.546;9.896;2023-04-09T10:42:07;12.18;;;6.07;;
1402;SDS011;696;48.546;9.896;2023-04-09T10:44:40;8.20;;;5.50;;
1402;SDS011;696;48.546;9.896;2023-04-09T10:47:09;7.05;;;5.05;;
1402;SDS011;696;48.546;9.896;2023-04-09T10:49:38;11.70;;;5.47;;
1402;SDS011;696;48.546;9.896;2023-04-09T10:52:05;7.57;;;5.43;;
1402;SDS011;696;48.546;9.896;2023-04-09T10:57:15;6.10;;;5.28;;
1402;SDS011;696;48.546;9.896;2023-04-09T10:59:51;13.05;;;5.75;;
1402;SDS011;696;48.546;9.896;2023-04-09T11:04:50;7.45;;;5.00;;
1402;SDS011;696;48.546;9.896;2023-04-09T11:07:21;8.95;;;5.68;;
1402;SDS011;696;48.546;9.896;2023-04-09T11:09:48;7.60;;;5.80;;
1402;SDS011;696;48.546;9.896;2023-04-09T11:12:13;6.68;;;5.35;;
1402;SDS011;696;48.546;9.896;2023-04-09T11:14:38;8.90;;;5.38;;
1402;SDS011;696;48.546;9.896;2023-04-09T11:17:04;7.28;;;5.47;;
1402;SDS011;696;48.546;9.896;2023-04-09T11:19:32;8.40;;;5.65;;
1402;SDS011;696;48.546;9.896;2023-04-09T11:21:57;6.13;;;5.10;;
1402;SDS011;696;48.546;9.896;2023-04-09T11:24:23;5.72;;;4.78;;
1402;SDS011;696;48.546;9.896;2023-04-09T11:26:48;7.85;;;5.30;;
1402;SDS011;696;48.546;9.896;2023-04-09T11:29:14;11.38;;;5.65;;
1402;SDS011;696;48.546;9.896;2023-04-09T11:31:43;5.53;;;4.55;;
1402;SDS011;696;48.546;9.896;2023-04-09T11:34:09;8.35;;;4.60;;
1402;SDS011;696;48.546;9.896;2023-04-09T11:36:36;4.78;;;4.18;;
1402;SDS011;696;48.546;9.896;2023-04-09T11:39:01;9.60;;;4.80;;
1402;SDS011;696;48.546;9.896;2023-04-09T11:41:31;8.15;;;4.97;;
1402;SDS011;696;48.546;9.896;2023-04-09T11:44:03;5.35;;;4.63;;
1402;SDS011;696;48.546;9.896;2023-04-09T11:46:31;5.72;;;4.55;;
1402;SDS011;696;48.546;9.896;2023-04-09T11:48:56;5.90;;;4.43;;
1402;SDS011;696;48.546;9.896;2023-04-09T11:51:22;6.88;;;4.22;;
1402;SDS011;696;48.546;9.896;2023-04-09T11:53:48;5.93;;;4.05;;
1402;SDS011;696;48.546;9.896;2023-04-09T11:56:13;9.55;;;5.00;;
1402;SDS011;696;48.546;9.896;2023-04-09T11:58:43;6.57;;;4.63;;
1402;SDS011;696;48.546;9.896;2023-04-09T12:01:10;7.15;;;5.38;;
1402;SDS011;696;48.546;9.896;2023-04-09T12:03:36;6.68;;;4.50;;
1402;SDS011;696;48.546;9.896;2023-04-09T12:06:03;7.90;;;4.90;;
1402;SDS011;696;48.546;9.896;2023-04-09T12:08:30;5.63;;;4.78;;
1402;SDS011;696;48.546;9.896;2023-04-09T12:10:55;8.82;;;4.97;;
1402;SDS011;696;48.546;9.896;2023-04-09T12:13:30;6.68;;;5.18;;
1402;SDS011;696;48.546;9.896;2023-04-09T12:15:56;7.95;;;5.18;;
1402;SDS011;696;48.546;9.896;2023-04-09T12:18:22;7.53;;;5.47;;
1402;SDS011;696;48.546;9.896;2023-04-09T12:20:47;10.13;;;6.60;;
1402;SDS011;696;48.546;9.896;2023-04-09T12:23:14;10.77;;;6.43;;
1402;SDS011;696;48.546;9.896;2023-04-09T12:25:41;9.48;;;6.65;;
1402;SDS011;696;48.546;9.896;2023-04-09T12:28:07;10.05;;;6.68;;
1402;SDS011;696;48.546;9.896;2023-04-09T12:30:34;11.30;;;6.75;;
1402;SDS011;696;48.546;9.896;2023-04-09T12:33:00;7.35;;;5.60;;
1402;SDS011;696;48.546;9.896;2023-04-09T12:35:25;14.10;;;6.10;;
1402;SDS011;696;48.546;9.896;2023-04-09T12:37:50;9.40;;;6.15;;
1402;SDS011;696;48.546;9.896;2023-04-09T12:40:16;10.10;;;6.25;;
1402;SDS011;696;48.546;9.896;2023-04-09T12:42:43;10.85;;;6.15;;
1402;SDS011;696;48.546;9.896;2023-04-09T12:45:11;8.52;;;6.57;;
1402;SDS011;696;48.546;9.896;2023-04-09T12:47:37;9.52;;;6.78;;
1402;SDS011;696;48.546;9.896;2023-04-09T12:50:04;8.88;;;6.70;;
1402;SDS011;696;48.546;9.896;2023-04-09T12:52:30;9.30;;;6.18;;
1402;SDS011;696;48.546;9.896;2023-04-09T12:54:55;9.23;;;6.43;;
1402;SDS011;696;48.546;9.896;2023-04-09T12:57:21;8.27;;;6.05;;
1402;SDS011;696;48.546;9.896;2023-04-09T12:59:46;6.30;;;5.10;;
1402;SDS011;696;48.546;9.896;2023-04-09T13:02:11;6.78;;;5.63;;
1402;SDS011;696;48.546;9.896;2023-04-09T13:04:37;7.20;;;5.40;;
1402;SDS011;696;48.546;9.896;2023-04-09T13:07:02;9.32;;;5.20;;
1402;SDS011;696;48.546;9.896;2023-04-09T13:09:27;6.78;;;5.45;;
1402;SDS011;696;48.546;9.896;2023-04-09T13:11:53;8.82;;;5.72;;
1402;SDS011;696;48.546;9.896;2023-04-09T13:14:18;5.50;;;4.90;;
1402;SDS011;696;48.546;9.896;2023-04-09T13:16:44;10.07;;;7.13;;
1402;SDS011;696;48.546;9.896;2023-04-09T13:19:09;10.20;;;5.70;;
1402;SDS011;696;48.546;9.896;2023-04-09T13:21:35;7.40;;;4.82;;
1402;SDS011;696;48.546;9.896;2023-04-09T13:24:01;8.52;;;5.32;;
1402;SDS011;696;48.546;9.896;2023-04-09T13:26:27;5.85;;;4.72;;
1402;SDS011;696;48.546;9.896;2023-04-09T13:28:53;6.63;;;4.72;;
1402;SDS011;696;48.546;9.896;2023-04-09T13:31:18;10.18;;;5.70;;
1402;SDS011;696;48.546;9.896;2023-04-09T13:33:43;9.40;;;5.53;;
1402;SDS011;696;48.546;9.896;2023-04-09T13:36:09;6.10;;;5.50;;
1402;SDS011;696;48.546;9.896;2023-04-09T13:38:34;6.82;;;5.40;;
1402;SDS011;696;48.546;9.896;2023-04-09T13:41:00;6.43;;;4.90;;
1402;SDS011;696;48.546;9.896;2023-04-09T13:43:25;8.73;;;5.00;;
1402;SDS011;696;48.546;9.896;2023-04-09T13:45:52;6.38;;;4.60;;
1402;SDS011;696;48.546;9.896;2023-04-09T13:48:22;6.00;;;4.85;;
1402;SDS011;696;48.546;9.896;2023-04-09T13:50:48;9.43;;;5.13;;
1402;SDS011;696;48.546;9.896;2023-04-09T13:53:13;8.05;;;5.63;;
1402;SDS011;696;48.546;9.896;2023-04-09T13:55:39;8.77;;;5.07;;
1402;SDS011;696;48.546;9.896;2023-04-09T13:58:04;6.50;;;4.78;;
1402;SDS011;696;48.546;9.896;2023-04-09T14:00:30;7.32;;;5.10;;
1402;SDS011;696;48.546;9.896;2023-04-09T14:02:56;5.65;;;4.90;;
1402;SDS011;696;48.546;9.896;2023-04-09T14:05:21;5.85;;;4.70;;
1402;SDS011;696;48.546;9.896;2023-04-09T14:07:47;5.75;;;4.30;;
1402;SDS011;696;48.546;9.896;2023-04-09T14:10:12;6.32;;;4.82;;
1402;SDS011;696;48.546;9.896;2023-04-09T14:12:38;5.35;;;4.55;;
1402;SDS011;696;48.546;9.896;2023-04-09T14:15:03;5.85;;;4.75;;
1402;SDS011;696;48.546;9.896;2023-04-09T14:17:29;6.75;;;4.50;;
1402;SDS011;696;48.546;9.896;2023-04-09T14:19:54;6.47;;;4.90;;
1402;SDS011;696;48.546;9.896;2023-04-09T14:22:22;6.00;;;4.47;;
1402;SDS011;696;48.546;9.896;2023-04-09T14:24:48;9.02;;;5.47;;
1402;SDS011;696;48.546;9.896;2023-04-09T14:27:14;4.40;;;3.97;;
1402;SDS011;696;48.546;9.896;2023-04-09T14:29:39;6.95;;;4.60;;
1402;SDS011;696;48.546;9.896;2023-04-09T14:32:05;10.02;;;4.55;;
1402;SDS011;696;48.546;9.896;2023-04-09T14:34:31;5.15;;;4.10;;
1402;SDS011;696;48.546;9.896;2023-04-09T14:36:57;6.53;;;4.57;;
1402;SDS011;696;48.546;9.896;2023-04-09T14:39:22;5.45;;;4.50;;
1402;SDS011;696;48.546;9.896;2023-04-09T14:41:47;5.60;;;4.25;;
1402;SDS011;696;48.546;9.896;2023-04-09T14:44:13;5.78;;;4.35;;
1402;SDS011;696;48.546;9.896;2023-04-09T14:46:38;5.63;;;4.00;;
1402;SDS011;696;48.546;9.896;2023-04-09T14:49:03;4.47;;;3.70;;
1402;SDS011;696;48.546;9.896;2023-04-09T14:51:29;4.60;;;3.75;;
1402;SDS011;696;48.546;9.896;2023-04-09T14:53:54;7.15;;;4.10;;
1402;SDS011;696;48.546;9.896;2023-04-09T14:56:21;4.85;;;3.13;;
1402;SDS011;696;48.546;9.896;2023-04-09T14:58:47;5.57;;;4.13;;
1402;SDS011;696;48.546;9.896;2023-04-09T15:01:12;5.30;;;3.95;;
1402;SDS011;696;48.546;9.896;2023-04-09T15:03:37;6.10;;;4.38;;
1402;SDS011;696;48.546;9.896;2023-04-09T15:06:05;8.90;;;3.55;;
1402;SDS011;696;48.546;9.896;2023-04-09T15:08:31;4.88;;;3.60;;
1402;SDS011;696;48.546;9.896;2023-04-09T15:10:56;6.82;;;3.90;;
1402;SDS011;696;48.546;9.896;2023-04-09T15:13:22;6.65;;;4.70;;
1402;SDS011;696;48.546;9.896;2023-04-09T15:15:48;5.72;;;4.15;;
1402;SDS011;696;48.546;9.896;2023-04-09T15:18:13;7.07;;;4.20;;
1402;SDS011;696;48.546;9.896;2023-04-09T15:20:39;7.30;;;4.05;;
1402;SDS011;696;48.546;9.896;2023-04-09T15:23:07;5.53;;;4.38;;
1402;SDS011;696;48.546;9.896;2023-04-09T15:25:33;4.57;;;3.58;;
1402;SDS011;696;48.546;9.896;2023-04-09T15:27:58;5.20;;;3.80;;
1402;SDS011;696;48.546;9.896;2023-04-09T15:30:23;5.88;;;4.50;;
1402;SDS011;696;48.546;9.896;2023-04-09T15:32:49;5.40;;;4.28;;
1402;SDS011;696;48.546;9.896;2023-04-09T15:35:14;7.50;;;4.50;;
1402;SDS011;696;48.546;9.896;2023-04-09T15:37:47;7.07;;;4.13;;